Latest Weather Observations for Grove

IDT60801

Issued at 3:05 pm EST Friday 25 April 2014 (issued every 30 minutes, with the page automatically refreshed every 10 minutes)

About weather observations | Map of weather stations | Latest weather observations for TAS | Other Formats
Station Details ID: 094220 Name: GROVE (RESEARCH STATION) Lat: -42.99 Lon: 147.07 Height: 65.0 m
Data from the previous 72 hours. | See also: Recent months at Grove
Date/Time
EST
Temp
°C
App
Temp
°C
Dew
Point
Rel
Hum
%
Delta-T
°C
Wind Press
QNH
hPa
Press
MSL
hPa
Rain
since 9 am
mm
Dir
 
Spd
km/h
Gust
km/h
Spd
kts
Gust
kts
25/03:00pm 14.2 10.2 3.1 47 5.0 N 13 17 7 9 - - 0.0
25/02:30pm 14.3 9.6 2.9 46 5.1 N 17 24 9 13 - - 0.0
25/02:00pm 15.1 11.9 3.2 45 5.4 W 9 13 5 7 - - 0.0
25/01:30pm 13.5 9.9 2.7 48 4.8 N 11 17 6 9 - - 0.0
25/01:00pm 13.8 9.5 3.4 49 4.7 N 15 24 8 13 - - 0.0
25/12:30pm 13.0 9.4 3.1 51 4.4 NNE 11 20 6 11 - - 0.0
25/12:00pm 12.4 8.0 2.6 51 4.3 N 15 24 8 13 - - 0.0
25/11:30am 12.6 8.6 2.9 51 4.3 N 13 20 7 11 - - 0.0
25/11:00am 13.6 10.1 3.7 51 4.5 N 11 19 6 10 - - 0.0
25/10:30am 13.4 9.7 4.2 53 4.2 N 13 20 7 11 - - 0.0
25/10:00am 12.0 7.4 3.5 56 3.8 N 17 22 9 12 - - 0.0
25/09:30am 11.8 8.3 3.5 57 3.7 N 11 17 6 9 - - 0.0
25/09:00am 10.5 7.9 4.2 65 2.8 N 7 11 4 6 - - 2.4
25/08:30am 8.3 6.3 4.4 76 1.7 ENE 4 7 2 4 - - 2.4
25/08:00am 6.2 3.1 3.6 83 1.1 ENE 9 11 5 6 - - 2.4
25/07:30am 4.5 0.8 2.5 87 0.8 ENE 11 15 6 8 - - 2.4
25/07:00am 1.8 -1.7 1.0 94 0.3 NE 9 13 5 7 - - 2.4
25/06:30am 1.5 -1.7 1.0 96 0.2 N 7 9 4 5 - - 2.4
25/06:00am 1.5 -1.1 1.0 96 0.2 NE 4 9 2 5 - - 2.4
25/05:30am 1.9 -0.2 1.4 96 0.2 N 2 9 1 5 - - 2.4
25/05:00am 2.4 -1.1 1.1 91 0.5 NE 9 13 5 7 - - 2.4
25/04:30am 3.8 0.0 1.8 87 0.8 ENE 11 15 6 8 - - 2.4
25/04:00am 4.1 0.3 1.8 85 0.9 E 11 15 6 8 - - 2.4
25/03:30am 2.2 -1.7 1.4 94 0.3 N 11 15 6 8 - - 2.4
25/03:00am 3.8 -0.4 1.5 85 0.9 NE 13 17 7 9 - - 2.4
25/02:30am 3.5 0.4 1.4 86 0.8 NNE 7 13 4 7 - - 2.4
25/02:00am 2.6 -0.3 1.6 93 0.4 N 6 9 3 5 - - 2.4
25/01:30am 3.2 0.7 1.4 88 0.7 SSW 4 7 2 4 - - 2.4
25/01:00am 4.5 1.1 1.7 82 1.1 ENE 9 13 5 7 - - 2.4
25/12:30am 8.2 3.9 1.1 61 2.9 N 13 20 7 11 - - 2.4
25/12:00am 4.2 0.7 1.4 82 1.1 ENE 9 13 5 7 - - 2.4
 
Date/Time
EST
Temp
°C
App
Temp
°C
Dew
Point
Rel
Hum
%
Delta-T
°C
Wind Press
QNH
hPa
Press
MSL
hPa
Rain
since 9 am
mm
Dir
 
Spd
km/h
Gust
km/h
Spd
kts
Gust
kts
24/11:30pm 3.0 0.5 1.7 91 0.5 SSE 4 9 2 5 - - 2.2
24/11:00pm 2.5 -0.4 1.5 93 0.4 SW 6 13 3 7 - - 2.2
24/10:30pm 3.0 0.0 1.7 91 0.5 NNE 7 13 4 7 - - 2.2
24/10:00pm 2.8 0.3 1.8 93 0.4 N 4 7 2 4 - - 2.2
24/09:30pm 3.6 1.2 2.3 91 0.5 NNE 4 7 2 4 - - 2.2
24/09:00pm 3.4 0.5 2.4 93 0.4 NE 7 9 4 5 - - 2.2
24/08:30pm 4.0 1.1 1.7 85 0.9 WNW 6 9 3 5 - - 2.2
24/08:00pm 4.7 1.4 2.5 86 0.9 NNE 9 13 5 7 - - 2.2
24/07:30pm 6.2 3.2 1.7 73 1.8 NE 7 11 4 6 - - 2.2
24/07:00pm 6.4 2.5 1.4 70 2.0 S 11 20 6 11 - - 2.2
24/06:30pm 6.4 2.6 1.7 72 1.9 WSW 11 17 6 9 - - 2.2
24/06:00pm 6.3 3.0 2.4 76 1.6 SSW 9 17 5 9 - - 2.2
24/05:30pm 7.0 2.9 2.1 71 2.0 W 13 28 7 15 - - 2.2
24/05:08pm 7.5 0.0 1.3 65 2.5 W 30 52 16 28 - - 2.2
24/05:00pm 7.7 -0.6 1.9 67 2.4 SW 35 46 19 25 - - 2.2
24/04:30pm 7.1 3.9 2.8 74 1.8 W 9 13 5 7 - - 2.2
24/04:00pm 7.0 2.7 3.2 77 1.6 WNW 15 32 8 17 - - 2.2
24/03:37pm 7.6 0.6 1.7 66 2.4 WSW 28 46 15 25 - - 1.8
24/03:30pm 7.7 0.7 2.2 68 2.3 WSW 28 41 15 22 - - 1.8
24/03:00pm 9.4 4.3 0.5 54 3.6 WSW 17 32 9 17 - - 1.8
24/02:30pm 9.1 3.1 1.3 58 3.2 W 22 44 12 24 - - 1.8
24/02:25pm 8.9 1.6 -0.2 53 3.6 W 28 44 15 24 - - 1.8
24/02:00pm 9.2 6.0 3.2 66 2.6 W 9 15 5 8 - - 1.8
24/01:30pm 7.8 4.6 2.8 70 2.1 SW 9 20 5 11 - - 1.8
24/01:00pm 8.8 4.9 3.2 68 2.4 WSW 13 26 7 14 - - 1.6
24/12:33pm 6.8 0.0 3.2 78 1.5 WSW 28 57 15 31 - - 1.0
24/12:30pm 8.3 2.6 2.6 67 2.4 W 22 44 12 24 - - 0.6
24/12:00pm 10.4 4.9 1.9 55 3.6 W 20 24 11 13 - - 0.4
24/11:30am 10.0 4.8 2.5 59 3.2 WSW 19 30 10 16 - - 0.4
24/11:00am 9.2 5.0 4.0 70 2.3 W 15 24 8 13 - - 0.4
24/10:30am 9.3 4.8 4.1 70 2.3 W 17 28 9 15 - - 0.4
24/10:00am 8.5 3.4 2.9 68 2.4 WSW 19 32 10 17 - - 0.4
24/09:30am 8.3 3.3 3.7 73 2.0 W 19 30 10 16 - - 0.4
24/09:00am 9.0 4.4 3.7 69 2.3 W 17 24 9 13 - - 2.0
24/08:30am 9.0 3.4 3.5 68 2.4 WSW 22 37 12 20 - - 2.0
24/08:00am 8.5 6.1 5.2 80 1.5 E 7 11 4 6 - - 2.0
24/07:30am 8.7 3.9 4.6 75 1.8 WSW 19 30 10 16 - - 2.0
24/07:00am 9.5 5.4 4.1 69 2.4 W 15 28 8 15 - - 1.8
24/06:30am 9.9 6.1 3.8 66 2.7 W 13 28 7 15 - - 1.8
24/06:00am 9.8 6.7 3.6 65 2.7 W 9 19 5 10 - - 1.8
24/05:30am 9.7 7.1 4.3 69 2.4 NNW 7 17 4 9 - - 1.8
24/05:00am 9.6 4.8 4.9 72 2.1 WSW 19 32 10 17 - - 1.8
24/04:30am 10.4 5.6 5.6 72 2.2 WSW 20 35 11 19 - - 1.2
24/04:00am 11.8 6.0 7.9 77 1.9 WSW 28 48 15 26 - - 0.6
24/03:59am 12.0 5.8 7.9 76 2.0 W 30 48 16 26 - - 0.6
24/03:30am 13.3 8.6 5.2 58 3.8 N 19 35 10 19 - - 0.0
24/03:00am 13.5 10.0 5.4 58 3.8 NNE 13 24 7 13 - - 0.0
24/02:30am 13.6 10.1 5.3 57 3.9 NNE 13 24 7 13 - - 0.0
24/02:00am 13.4 9.9 5.5 59 3.7 NNE 13 19 7 10 - - 0.0
24/01:30am 13.1 9.5 5.2 58 3.7 NNE 13 20 7 11 - - 0.0
24/01:00am 13.4 9.9 5.3 58 3.8 N 13 28 7 15 - - 0.0
24/12:30am 13.9 9.5 4.6 53 4.3 N 17 37 9 20 - - 0.0
24/12:00am 13.4 9.7 4.2 53 4.2 N 13 24 7 13 - - 0.0
 
Date/Time
EST
Temp
°C
App
Temp
°C
Dew
Point
Rel
Hum
%
Delta-T
°C
Wind Press
QNH
hPa
Press
MSL
hPa
Rain
since 9 am
mm
Dir
 
Spd
km/h
Gust
km/h
Spd
kts
Gust
kts
23/11:30pm 12.6 9.2 4.2 56 3.8 NE 11 19 6 10 - - 0.0
23/11:00pm 13.1 10.2 4.4 55 4.0 NNW 9 15 5 8 - - 0.0
23/10:30pm 13.4 8.9 4.2 53 4.2 N 17 28 9 15 - - 0.0
23/10:00pm 13.5 9.2 3.5 51 4.5 NNW 15 32 8 17 - - 0.0
23/09:30pm 13.7 8.5 3.8 51 4.5 NNW 20 37 11 20 - - 0.0
23/09:00pm 13.7 8.1 3.5 50 4.6 NNW 22 37 12 20 - - 0.0
23/08:30pm 13.5 9.3 3.8 52 4.4 N 15 26 8 14 - - 0.0
23/08:00pm 13.7 8.7 3.5 50 4.6 NNW 19 22 10 12 - - 0.0
23/07:30pm 9.9 7.9 4.5 69 2.4 SSE 4 9 2 5 - - 0.0
23/07:00pm 11.6 9.5 4.0 59 3.4 WNW 4 11 2 6 - - 0.0
23/06:30pm 12.8 10.4 4.5 57 3.8 N 6 11 3 6 - - 0.0
23/06:00pm 11.8 9.3 4.5 61 3.3 ENE 7 11 4 6 - - 0.0
23/05:30pm 13.6 12.3 3.9 52 4.4 CALM 0 9 0 5 - - 0.0
23/05:00pm 14.7 11.6 3.8 48 5.0 N 9 15 5 8 - - 0.0
23/04:30pm 15.4 12.5 4.8 49 5.0 N 9 15 5 8 - - 0.0
23/04:00pm 15.8 13.3 4.5 47 5.3 N 7 15 4 8 - - 0.0
23/03:30pm 15.5 13.0 4.6 48 5.1 N 7 13 4 7 - - 0.0
23/03:00pm 15.6 12.4 5.1 49 5.0 NNW 11 17 6 9 - - 0.0
23/02:30pm 15.8 13.0 5.1 49 5.1 N 9 15 5 8 - - 0.0
23/02:00pm 15.8 13.0 5.3 49 5.0 N 9 19 5 10 - - 0.0
23/01:30pm 15.4 12.1 4.8 49 5.0 WNW 11 19 6 10 - - 0.0
23/01:00pm 15.4 10.5 4.2 47 5.2 NW 19 24 10 13 - - 0.0
23/12:30pm 15.9 13.0 4.4 46 5.4 N 9 17 5 9 - - 0.0
23/12:00pm 15.6 12.5 3.4 44 5.6 WNW 9 17 5 9 - - 0.0
23/11:30am 15.5 13.0 4.6 48 5.1 W 7 13 4 7 - - 0.0
23/11:00am 14.4 12.5 5.0 53 4.4 ESE 4 7 2 4 - - 0.0
23/10:30am 14.1 10.9 5.2 55 4.2 N 11 19 6 10 - - 0.0
23/10:00am 13.5 11.0 4.9 56 4.0 N 7 13 4 7 - - 0.0
23/09:30am 12.0 9.3 5.8 66 2.9 NNE 9 13 5 7 - - 0.0
23/09:00am 9.2 6.9 5.7 79 1.6 N 7 9 4 5 - - 0.2
23/08:30am 7.9 5.8 5.7 86 1.0 NW 6 9 3 5 - - 0.2
23/08:00am 6.8 4.3 4.7 86 0.9 SSW 7 13 4 7 - - 0.2
23/07:30am 5.2 3.2 4.5 95 0.3 NNE 4 9 2 5 - - 0.2
23/07:00am 4.7 2.0 3.7 93 0.4 NNE 7 11 4 6 - - 0.2
23/06:30am 5.1 2.3 3.4 89 0.7 ENE 7 9 4 5 - - 0.2
23/06:00am 5.4 2.4 4.0 91 0.6 NE 9 13 5 7 - - 0.2
23/05:30am 4.4 3.0 3.4 93 0.4 CALM 0 0 0 0 - - 0.2
23/05:00am 5.2 3.1 3.8 91 0.6 SSW 4 7 2 4 - - 0.2
23/04:30am 5.8 4.5 4.2 89 0.7 CALM 0 0 0 0 - - 0.2
23/04:00am 5.7 3.7 4.3 91 0.6 S 4 7 2 4 - - 0.2
23/03:30am 5.6 4.4 4.4 92 0.5 CALM 0 0 0 0 - - 0.2
23/03:00am 6.3 5.2 4.9 91 0.6 CALM 0 0 0 0 - - 0.2
23/02:30am 6.6 3.7 4.8 88 0.8 NE 9 13 5 7 - - 0.2
23/02:00am 7.4 4.9 4.9 84 1.1 E 7 11 4 6 - - 0.2
23/01:30am 7.2 5.4 5.2 87 0.9 WNW 4 7 2 4 - - 0.2
23/01:00am 8.0 5.7 5.6 85 1.1 NNE 7 9 4 5 - - 0.2
23/12:30am 7.2 4.8 5.2 87 0.9 E 7 9 4 5 - - 0.2
23/12:00am 8.7 6.3 5.1 78 1.6 E 7 9 4 5 - - 0.2
 
Date/Time
EST
Temp
°C
App
Temp
°C
Dew
Point
Rel
Hum
%
Delta-T
°C
Wind Press
QNH
hPa
Press
MSL
hPa
Rain
since 9 am
mm
Dir
 
Spd
km/h
Gust
km/h
Spd
kts
Gust
kts
22/11:30pm 8.8 7.1 5.7 81 1.4 NNW 4 9 2 5 - - 0.2
22/11:00pm 10.9 8.7 5.2 68 2.6 SSW 6 9 3 5 - - 0.2
22/10:30pm 10.9 8.9 4.5 64 2.9 N 4 7 2 4 - - 0.2
22/10:00pm 9.8 7.5 4.9 71 2.2 ENE 6 9 3 5 - - 0.2
22/09:30pm 8.8 7.2 4.3 73 2.0 W 2 6 1 3 - - 0.2
22/09:00pm 9.7 7.2 4.6 70 2.3 WNW 7 13 4 7 - - 0.2
22/08:30pm 10.6 8.4 6.1 74 2.1 N 7 11 4 6 - - 0.2
22/08:00pm 11.8 9.8 6.1 68 2.7 NNE 6 7 3 4 - - 0.2
22/07:30pm 12.8 10.3 4.8 58 3.7 SW 7 13 4 7 - - 0.2
22/07:00pm 13.1 8.7 4.9 57 3.8 WSW 17 26 9 14 - - 0.2
22/06:30pm 13.6 9.2 4.8 55 4.1 WSW 17 24 9 13 - - 0.2
22/06:00pm 14.1 9.1 3.5 49 4.8 W 19 39 10 21 - - 0.2
22/05:30pm 13.6 10.4 2.8 48 4.8 W 9 19 5 10 - - 0.2
22/05:00pm 14.0 11.4 3.1 48 4.9 NNE 6 9 3 5 - - 0.2
22/04:30pm 14.0 11.2 3.4 49 4.8 WNW 7 13 4 7 - - 0.2
22/04:00pm 15.6 12.2 2.1 40 6.0 NW 9 19 5 10 - - 0.2
22/03:30pm 16.8 13.3 3.4 40 6.2 WNW 11 20 6 11 - - 0.2

Other Formats:

Comma delimited format used in spreadsheet applications
http://www.bom.gov.au/fwo/IDT60801/IDT60801.95977.axf

JavaScript Object Notation format (JSON) in row-major order
http://www.bom.gov.au/fwo/IDT60801/IDT60801.95977.json